sensor_id;sensor_type;location;lat;lon;timestamp;pressure;altitude;pressure_sealevel;temperature
72405;BMP280;60395;52.020;113.548;2023-01-10T00:01:05;92195.06;;;-13.08
72405;BMP280;60395;52.020;113.548;2023-01-10T00:04:09;92198.81;;;-12.90
72405;BMP280;60395;52.020;113.548;2023-01-10T00:07:12;92195.38;;;-12.76
72405;BMP280;60395;52.020;113.548;2023-01-10T00:10:15;92211.84;;;-12.75
72405;BMP280;60395;52.020;113.548;2023-01-10T00:13:18;92219.56;;;-12.82
72405;BMP280;60395;52.020;113.548;2023-01-10T00:16:28;92218.09;;;-12.85
72405;BMP280;60395;52.020;113.548;2023-01-10T00:19:31;92202.50;;;-13.11
72405;BMP280;60395;52.020;113.548;2023-01-10T00:22:34;92196.84;;;-13.28
72405;BMP280;60395;52.020;113.548;2023-01-10T00:25:38;92188.31;;;-13.33
72405;BMP280;60395;52.020;113.548;2023-01-10T00:28:42;92187.94;;;-13.29
72405;BMP280;60395;52.020;113.548;2023-01-10T00:31:45;92185.03;;;-13.26
72405;BMP280;60395;52.020;113.548;2023-01-10T00:34:48;92180.78;;;-13.14
72405;BMP280;60395;52.020;113.548;2023-01-10T00:37:52;92176.44;;;-13.03
72405;BMP280;60395;52.020;113.548;2023-01-10T00:40:59;92172.75;;;-12.93
72405;BMP280;60395;52.020;113.548;2023-01-10T00:44:03;92177.53;;;-12.87
72405;BMP280;60395;52.020;113.548;2023-01-10T00:47:08;92185.38;;;-12.83
72405;BMP280;60395;52.020;113.548;2023-01-10T00:50:11;92170.09;;;-12.76
72405;BMP280;60395;52.020;113.548;2023-01-10T00:53:16;92177.41;;;-12.70
72405;BMP280;60395;52.020;113.548;2023-01-10T00:56:19;92183.78;;;-12.69
72405;BMP280;60395;52.020;113.548;2023-01-10T00:59:23;92209.06;;;-12.69
72405;BMP280;60395;52.020;113.548;2023-01-10T01:02:26;92203.34;;;-12.69
72405;BMP280;60395;52.020;113.548;2023-01-10T01:05:30;92195.41;;;-12.66
72405;BMP280;60395;52.020;113.548;2023-01-10T01:08:33;92200.00;;;-12.82
72405;BMP280;60395;52.020;113.548;2023-01-10T01:11:37;92207.03;;;-12.90
72405;BMP280;60395;52.020;113.548;2023-01-10T01:14:40;92202.28;;;-12.76
72405;BMP280;60395;52.020;113.548;2023-01-10T01:17:43;92207.34;;;-12.57
72405;BMP280;60395;52.020;113.548;2023-01-10T01:20:47;92201.25;;;-12.44
72405;BMP280;60395;52.020;113.548;2023-01-10T01:23:55;92203.22;;;-12.33
72405;BMP280;60395;52.020;113.548;2023-01-10T01:26:58;92199.75;;;-12.18
72405;BMP280;60395;52.020;113.548;2023-01-10T01:30:02;92201.47;;;-12.01
72405;BMP280;60395;52.020;113.548;2023-01-10T01:33:05;92193.69;;;-11.84
72405;BMP280;60395;52.020;113.548;2023-01-10T01:36:12;92186.06;;;-11.75
72405;BMP280;60395;52.020;113.548;2023-01-10T01:39:15;92178.75;;;-11.70
72405;BMP280;60395;52.020;113.548;2023-01-10T01:42:30;92176.56;;;-11.55
72405;BMP280;60395;52.020;113.548;2023-01-10T01:45:34;92187.78;;;-11.27
72405;BMP280;60395;52.020;113.548;2023-01-10T01:48:40;92199.22;;;-10.95
72405;BMP280;60395;52.020;113.548;2023-01-10T01:51:45;92200.59;;;-10.61
72405;BMP280;60395;52.020;113.548;2023-01-10T01:54:49;92210.50;;;-10.32
72405;BMP280;60395;52.020;113.548;2023-01-10T01:57:54;92214.66;;;-10.15
72405;BMP280;60395;52.020;113.548;2023-01-10T02:00:58;92212.44;;;-10.09
72405;BMP280;60395;52.020;113.548;2023-01-10T02:04:25;92212.31;;;-10.23
72405;BMP280;60395;52.020;113.548;2023-01-10T02:07:35;92207.03;;;-10.48
72405;BMP280;60395;52.020;113.548;2023-01-10T02:11:07;92193.19;;;-10.90
72405;BMP280;60395;52.020;113.548;2023-01-10T02:14:12;92186.91;;;-11.41
72405;BMP280;60395;52.020;113.548;2023-01-10T02:17:16;92165.38;;;-11.61
72405;BMP280;60395;52.020;113.548;2023-01-10T02:20:21;92148.84;;;-11.62
72405;BMP280;60395;52.020;113.548;2023-01-10T02:30:31;92167.84;;;-10.57
72405;BMP280;60395;52.020;113.548;2023-01-10T02:34:01;92169.28;;;-10.09
72405;BMP280;60395;52.020;113.548;2023-01-10T02:37:17;92182.19;;;-9.72
72405;BMP280;60395;52.020;113.548;2023-01-10T02:43:51;92184.47;;;-9.76
72405;BMP280;60395;52.020;113.548;2023-01-10T02:46:55;92172.09;;;-10.05
72405;BMP280;60395;52.020;113.548;2023-01-10T02:53:32;92160.63;;;-10.39
72405;BMP280;60395;52.020;113.548;2023-01-10T03:00:13;92164.16;;;-10.00
72405;BMP280;60395;52.020;113.548;2023-01-10T03:03:35;92165.06;;;-9.72
72405;BMP280;60395;52.020;113.548;2023-01-10T03:06:51;92159.06;;;-9.53
72405;BMP280;60395;52.020;113.548;2023-01-10T03:10:12;92160.59;;;-9.36
72405;BMP280;60395;52.020;113.548;2023-01-10T03:16:39;92153.50;;;-9.14
72405;BMP280;60395;52.020;113.548;2023-01-10T03:19:48;92157.34;;;-9.13
72405;BMP280;60395;52.020;113.548;2023-01-10T03:22:55;92160.78;;;-9.09
72405;BMP280;60395;52.020;113.548;2023-01-10T03:26:00;92164.19;;;-9.04
72405;BMP280;60395;52.020;113.548;2023-01-10T03:29:07;92166.66;;;-9.18
72405;BMP280;60395;52.020;113.548;2023-01-10T03:32:13;92154.50;;;-9.31
72405;BMP280;60395;52.020;113.548;2023-01-10T03:35:19;92151.66;;;-9.37
72405;BMP280;60395;52.020;113.548;2023-01-10T03:38:44;92145.88;;;-9.26
72405;BMP280;60395;52.020;113.548;2023-01-10T03:42:15;92141.47;;;-9.25
72405;BMP280;60395;52.020;113.548;2023-01-10T03:45:33;92145.03;;;-9.66
72405;BMP280;60395;52.020;113.548;2023-01-10T03:48:44;92146.94;;;-9.66
72405;BMP280;60395;52.020;113.548;2023-01-10T03:51:49;92144.59;;;-9.39
72405;BMP280;60395;52.020;113.548;2023-01-10T03:54:52;92145.53;;;-9.09
72405;BMP280;60395;52.020;113.548;2023-01-10T03:57:56;92154.41;;;-8.84
72405;BMP280;60395;52.020;113.548;2023-01-10T04:01:00;92164.41;;;-8.63
72405;BMP280;60395;52.020;113.548;2023-01-10T04:04:03;92171.63;;;-8.46
72405;BMP280;60395;52.020;113.548;2023-01-10T04:07:06;92167.91;;;-8.31
72405;BMP280;60395;52.020;113.548;2023-01-10T04:10:10;92161.47;;;-8.32
72405;BMP280;60395;52.020;113.548;2023-01-10T04:13:13;92164.69;;;-8.32
72405;BMP280;60395;52.020;113.548;2023-01-10T04:16:16;92154.44;;;-8.20
72405;BMP280;60395;52.020;113.548;2023-01-10T04:19:19;92154.81;;;-8.26
72405;BMP280;60395;52.020;113.548;2023-01-10T04:22:23;92151.88;;;-8.20
72405;BMP280;60395;52.020;113.548;2023-01-10T04:25:26;92142.59;;;-8.02
72405;BMP280;60395;52.020;113.548;2023-01-10T04:28:29;92140.72;;;-7.88
72405;BMP280;60395;52.020;113.548;2023-01-10T04:31:32;92137.34;;;-7.78
72405;BMP280;60395;52.020;113.548;2023-01-10T04:34:35;92136.94;;;-7.59
72405;BMP280;60395;52.020;113.548;2023-01-10T04:37:38;92140.44;;;-7.39
72405;BMP280;60395;52.020;113.548;2023-01-10T04:40:42;92141.81;;;-7.22
72405;BMP280;60395;52.020;113.548;2023-01-10T04:43:46;92129.16;;;-7.06
72405;BMP280;60395;52.020;113.548;2023-01-10T04:46:49;92127.44;;;-7.02
72405;BMP280;60395;52.020;113.548;2023-01-10T04:49:52;92122.19;;;-6.90
72405;BMP280;60395;52.020;113.548;2023-01-10T04:52:55;92114.84;;;-6.68
72405;BMP280;60395;52.020;113.548;2023-01-10T04:56:03;92106.22;;;-6.46
72405;BMP280;60395;52.020;113.548;2023-01-10T04:59:08;92112.06;;;-6.27
72405;BMP280;60395;52.020;113.548;2023-01-10T05:02:11;92094.69;;;-6.15
72405;BMP280;60395;52.020;113.548;2023-01-10T05:05:15;92097.38;;;-6.11
72405;BMP280;60395;52.020;113.548;2023-01-10T05:08:18;92089.56;;;-6.15
72405;BMP280;60395;52.020;113.548;2023-01-10T05:11:21;92090.88;;;-6.30
72405;BMP280;60395;52.020;113.548;2023-01-10T05:14:25;92074.00;;;-6.37
72405;BMP280;60395;52.020;113.548;2023-01-10T05:17:28;92075.38;;;-6.34
72405;BMP280;60395;52.020;113.548;2023-01-10T05:20:31;92059.66;;;-6.28
72405;BMP280;60395;52.020;113.548;2023-01-10T05:23:35;92060.69;;;-6.18
72405;BMP280;60395;52.020;113.548;2023-01-10T05:26:38;92053.44;;;-6.08
72405;BMP280;60395;52.020;113.548;2023-01-10T05:29:43;92046.44;;;-6.07
72405;BMP280;60395;52.020;113.548;2023-01-10T05:32:46;92051.03;;;-6.04
72405;BMP280;60395;52.020;113.548;2023-01-10T05:35:49;92041.56;;;-6.01
72405;BMP280;60395;52.020;113.548;2023-01-10T05:38:52;92034.06;;;-5.97
72405;BMP280;60395;52.020;113.548;2023-01-10T05:41:55;92035.78;;;-5.86
72405;BMP280;60395;52.020;113.548;2023-01-10T05:44:58;92038.03;;;-5.76
72405;BMP280;60395;52.020;113.548;2023-01-10T05:48:01;92037.75;;;-5.67
72405;BMP280;60395;52.020;113.548;2023-01-10T05:51:05;92039.88;;;-5.61
72405;BMP280;60395;52.020;113.548;2023-01-10T05:54:08;92026.44;;;-5.62
72405;BMP280;60395;52.020;113.548;2023-01-10T05:57:13;92017.09;;;-5.55
72405;BMP280;60395;52.020;113.548;2023-01-10T06:00:16;92015.28;;;-5.52
72405;BMP280;60395;52.020;113.548;2023-01-10T06:03:20;92011.06;;;-5.62
72405;BMP280;60395;52.020;113.548;2023-01-10T06:06:23;92014.88;;;-5.80
72405;BMP280;60395;52.020;113.548;2023-01-10T06:09:26;92006.00;;;-5.95
72405;BMP280;60395;52.020;113.548;2023-01-10T06:12:30;92009.50;;;-6.04
72405;BMP280;60395;52.020;113.548;2023-01-10T06:15:34;91999.63;;;-6.12
72405;BMP280;60395;52.020;113.548;2023-01-10T06:18:38;92000.03;;;-6.17
72405;BMP280;60395;52.020;113.548;2023-01-10T06:21:41;92005.66;;;-6.21
72405;BMP280;60395;52.020;113.548;2023-01-10T06:24:44;92016.97;;;-6.26
72405;BMP280;60395;52.020;113.548;2023-01-10T06:27:47;92022.06;;;-6.26
72405;BMP280;60395;52.020;113.548;2023-01-10T06:30:50;92016.22;;;-6.28
72405;BMP280;60395;52.020;113.548;2023-01-10T06:33:54;92026.66;;;-6.22
72405;BMP280;60395;52.020;113.548;2023-01-10T06:36:59;92024.19;;;-6.20
72405;BMP280;60395;52.020;113.548;2023-01-10T06:40:03;92029.22;;;-6.22
72405;BMP280;60395;52.020;113.548;2023-01-10T06:43:06;92032.78;;;-6.29
72405;BMP280;60395;52.020;113.548;2023-01-10T06:46:11;92026.63;;;-6.40
72405;BMP280;60395;52.020;113.548;2023-01-10T06:49:14;92025.13;;;-6.45
72405;BMP280;60395;52.020;113.548;2023-01-10T06:52:17;92030.00;;;-6.51
72405;BMP280;60395;52.020;113.548;2023-01-10T06:55:20;92025.13;;;-6.61
72405;BMP280;60395;52.020;113.548;2023-01-10T06:58:24;92026.31;;;-6.64
72405;BMP280;60395;52.020;113.548;2023-01-10T07:01:27;92025.63;;;-6.64
72405;BMP280;60395;52.020;113.548;2023-01-10T07:04:31;92021.44;;;-6.58
72405;BMP280;60395;52.020;113.548;2023-01-10T07:07:35;92008.31;;;-6.50
72405;BMP280;60395;52.020;113.548;2023-01-10T07:10:42;92008.16;;;-6.39
72405;BMP280;60395;52.020;113.548;2023-01-10T07:13:45;92000.81;;;-6.30
72405;BMP280;60395;52.020;113.548;2023-01-10T07:16:49;91999.75;;;-6.25
72405;BMP280;60395;52.020;113.548;2023-01-10T07:19:52;91992.78;;;-6.23
72405;BMP280;60395;52.020;113.548;2023-01-10T07:22:57;91989.75;;;-6.19
72405;BMP280;60395;52.020;113.548;2023-01-10T07:26:05;91981.69;;;-6.29
72405;BMP280;60395;52.020;113.548;2023-01-10T07:29:08;91981.41;;;-6.53
72405;BMP280;60395;52.020;113.548;2023-01-10T07:32:12;91968.38;;;-6.59
72405;BMP280;60395;52.020;113.548;2023-01-10T07:35:15;91981.16;;;-6.59
72405;BMP280;60395;52.020;113.548;2023-01-10T07:38:18;91969.75;;;-6.56
72405;BMP280;60395;52.020;113.548;2023-01-10T07:41:21;91974.88;;;-6.56
72405;BMP280;60395;52.020;113.548;2023-01-10T07:44:26;91974.56;;;-6.64
72405;BMP280;60395;52.020;113.548;2023-01-10T07:47:29;91977.38;;;-6.74
72405;BMP280;60395;52.020;113.548;2023-01-10T07:50:34;91981.06;;;-6.77
72405;BMP280;60395;52.020;113.548;2023-01-10T07:53:38;91988.88;;;-6.73
72405;BMP280;60395;52.020;113.548;2023-01-10T07:56:41;91988.00;;;-6.64
72405;BMP280;60395;52.020;113.548;2023-01-10T07:59:44;91988.91;;;-6.57
72405;BMP280;60395;52.020;113.548;2023-01-10T08:02:52;91973.75;;;-6.53
72405;BMP280;60395;52.020;113.548;2023-01-10T08:06:01;91970.84;;;-6.61
72405;BMP280;60395;52.020;113.548;2023-01-10T08:09:06;91968.81;;;-6.65
72405;BMP280;60395;52.020;113.548;2023-01-10T08:12:09;91979.84;;;-6.60
72405;BMP280;60395;52.020;113.548;2023-01-10T08:15:12;91986.25;;;-6.59
72405;BMP280;60395;52.020;113.548;2023-01-10T08:18:15;91975.97;;;-6.61
72405;BMP280;60395;52.020;113.548;2023-01-10T08:21:19;91975.72;;;-6.67
72405;BMP280;60395;52.020;113.548;2023-01-10T08:24:22;91984.38;;;-6.75
72405;BMP280;60395;52.020;113.548;2023-01-10T08:27:25;91976.97;;;-6.84
72405;BMP280;60395;52.020;113.548;2023-01-10T08:30:29;91994.16;;;-7.00
72405;BMP280;60395;52.020;113.548;2023-01-10T08:33:32;91996.53;;;-7.04
72405;BMP280;60395;52.020;113.548;2023-01-10T08:36:38;91992.09;;;-7.04
72405;BMP280;60395;52.020;113.548;2023-01-10T08:39:41;91997.69;;;-7.07
72405;BMP280;60395;52.020;113.548;2023-01-10T08:42:44;92004.34;;;-7.16
72405;BMP280;60395;52.020;113.548;2023-01-10T08:45:48;91998.16;;;-7.27
72405;BMP280;60395;52.020;113.548;2023-01-10T08:48:51;91999.59;;;-7.37
72405;BMP280;60395;52.020;113.548;2023-01-10T08:51:55;91989.91;;;-7.55
72405;BMP280;60395;52.020;113.548;2023-01-10T08:54:58;91985.09;;;-7.78
72405;BMP280;60395;52.020;113.548;2023-01-10T08:58:01;91979.91;;;-7.94
72405;BMP280;60395;52.020;113.548;2023-01-10T09:01:08;91992.38;;;-8.00
72405;BMP280;60395;52.020;113.548;2023-01-10T09:04:13;91986.63;;;-8.00
72405;BMP280;60395;52.020;113.548;2023-01-10T09:07:16;91980.94;;;-7.99
72405;BMP280;60395;52.020;113.548;2023-01-10T09:10:19;91968.13;;;-8.01
72405;BMP280;60395;52.020;113.548;2023-01-10T09:13:23;91966.88;;;-8.00
72405;BMP280;60395;52.020;113.548;2023-01-10T09:16:26;91971.88;;;-7.88
72405;BMP280;60395;52.020;113.548;2023-01-10T09:19:30;91978.53;;;-7.67
72405;BMP280;60395;52.020;113.548;2023-01-10T09:22:38;91963.63;;;-7.43
72405;BMP280;60395;52.020;113.548;2023-01-10T09:25:41;91955.59;;;-7.38
72405;BMP280;60395;52.020;113.548;2023-01-10T09:28:45;91958.22;;;-7.36
72405;BMP280;60395;52.020;113.548;2023-01-10T09:31:49;91965.59;;;-7.28
72405;BMP280;60395;52.020;113.548;2023-01-10T09:34:53;91974.47;;;-7.14
72405;BMP280;60395;52.020;113.548;2023-01-10T09:37:58;91965.50;;;-6.99
72405;BMP280;60395;52.020;113.548;2023-01-10T09:54:04;91985.91;;;-6.99
72405;BMP280;60395;52.020;113.548;2023-01-10T09:57:16;91960.34;;;-7.46
72405;BMP280;60395;52.020;113.548;2023-01-10T10:00:34;91953.97;;;-7.90
72405;BMP280;60395;52.020;113.548;2023-01-10T10:03:52;91942.31;;;-8.09
72405;BMP280;60395;52.020;113.548;2023-01-10T10:06:56;91945.22;;;-8.14
72405;BMP280;60395;52.020;113.548;2023-01-10T10:10:00;91947.94;;;-8.10
72405;BMP280;60395;52.020;113.548;2023-01-10T10:26:57;91931.06;;;-7.45
72405;BMP280;60395;52.020;113.548;2023-01-10T10:33:45;91952.19;;;-6.97
72405;BMP280;60395;52.020;113.548;2023-01-10T10:36:56;91956.56;;;-6.84
72405;BMP280;60395;52.020;113.548;2023-01-10T10:40:10;91966.34;;;-6.79
72405;BMP280;60395;52.020;113.548;2023-01-10T10:43:19;91931.13;;;-6.82
72405;BMP280;60395;52.020;113.548;2023-01-10T10:46:23;91921.22;;;-7.05
72405;BMP280;60395;52.020;113.548;2023-01-10T10:49:53;91905.91;;;-7.21
72405;BMP280;60395;52.020;113.548;2023-01-10T10:52:59;91878.09;;;-7.47
72405;BMP280;60395;52.020;113.548;2023-01-10T10:56:05;91875.34;;;-7.66
72405;BMP280;60395;52.020;113.548;2023-01-10T10:59:17;91880.06;;;-7.61
72405;BMP280;60395;52.020;113.548;2023-01-10T11:05:41;91887.56;;;-7.33
72405;BMP280;60395;52.020;113.548;2023-01-10T11:08:47;91895.19;;;-7.33
72405;BMP280;60395;52.020;113.548;2023-01-10T11:11:52;91907.94;;;-7.33
72405;BMP280;60395;52.020;113.548;2023-01-10T11:14:57;91909.38;;;-7.30
72405;BMP280;60395;52.020;113.548;2023-01-10T11:18:09;91904.84;;;-7.32
72405;BMP280;60395;52.020;113.548;2023-01-10T11:21:14;91889.28;;;-7.54
72405;BMP280;60395;52.020;113.548;2023-01-10T11:24:32;91909.34;;;-7.91
72405;BMP280;60395;52.020;113.548;2023-01-10T11:27:49;91911.06;;;-8.09
72405;BMP280;60395;52.020;113.548;2023-01-10T11:30:53;91918.38;;;-8.17
72405;BMP280;60395;52.020;113.548;2023-01-10T11:33:57;91921.28;;;-8.23
72405;BMP280;60395;52.020;113.548;2023-01-10T11:37:03;91920.34;;;-8.43
72405;BMP280;60395;52.020;113.548;2023-01-10T11:40:20;91928.00;;;-8.57
72405;BMP280;60395;52.020;113.548;2023-01-10T11:43:28;91910.75;;;-8.59
72405;BMP280;60395;52.020;113.548;2023-01-10T11:46:33;91908.47;;;-8.52
72405;BMP280;60395;52.020;113.548;2023-01-10T11:49:38;91919.69;;;-8.44
72405;BMP280;60395;52.020;113.548;2023-01-10T11:52:43;91932.25;;;-8.48
72405;BMP280;60395;52.020;113.548;2023-01-10T11:55:47;91942.22;;;-8.52
72405;BMP280;60395;52.020;113.548;2023-01-10T11:58:51;91932.63;;;-8.53
72405;BMP280;60395;52.020;113.548;2023-01-10T12:01:58;91925.06;;;-8.65
72405;BMP280;60395;52.020;113.548;2023-01-10T12:05:05;91924.13;;;-8.85
72405;BMP280;60395;52.020;113.548;2023-01-10T12:08:31;91904.34;;;-8.87
72405;BMP280;60395;52.020;113.548;2023-01-10T12:11:36;91890.66;;;-8.94
72405;BMP280;60395;52.020;113.548;2023-01-10T12:14:39;91892.75;;;-8.90
72405;BMP280;60395;52.020;113.548;2023-01-10T12:17:42;91887.13;;;-8.88
72405;BMP280;60395;52.020;113.548;2023-01-10T12:20:54;91883.34;;;-8.74
72405;BMP280;60395;52.020;113.548;2023-01-10T12:27:15;91877.94;;;-8.52
72405;BMP280;60395;52.020;113.548;2023-01-10T12:33:34;91862.75;;;-8.37
72405;BMP280;60395;52.020;113.548;2023-01-10T12:37:06;91846.53;;;-8.30
72405;BMP280;60395;52.020;113.548;2023-01-10T12:41:03;91842.34;;;-8.23
72405;BMP280;60395;52.020;113.548;2023-01-10T12:43:43;91848.34;;;-8.16
72405;BMP280;60395;52.020;113.548;2023-01-10T12:50:33;91861.56;;;-8.20
72405;BMP280;60395;52.020;113.548;2023-01-10T12:53:42;91868.22;;;-8.29
72405;BMP280;60395;52.020;113.548;2023-01-10T12:56:47;91857.59;;;-8.39
72405;BMP280;60395;52.020;113.548;2023-01-10T12:59:53;91852.69;;;-8.48
72405;BMP280;60395;52.020;113.548;2023-01-10T13:02:59;91853.25;;;-8.64
72405;BMP280;60395;52.020;113.548;2023-01-10T13:06:02;91850.34;;;-8.85
72405;BMP280;60395;52.020;113.548;2023-01-10T13:09:16;91845.09;;;-9.17
72405;BMP280;60395;52.020;113.548;2023-01-10T13:12:28;91849.28;;;-9.35
72405;BMP280;60395;52.020;113.548;2023-01-10T13:15:53;91838.25;;;-9.40
72405;BMP280;60395;52.020;113.548;2023-01-10T13:22:18;91831.88;;;-9.27
72405;BMP280;60395;52.020;113.548;2023-01-10T13:25:31;91820.31;;;-9.16
72405;BMP280;60395;52.020;113.548;2023-01-10T13:28:39;91815.78;;;-9.04
72405;BMP280;60395;52.020;113.548;2023-01-10T13:31:43;91808.25;;;-9.02
72405;BMP280;60395;52.020;113.548;2023-01-10T13:34:47;91819.47;;;-9.07
72405;BMP280;60395;52.020;113.548;2023-01-10T13:37:53;91840.47;;;-9.07
72405;BMP280;60395;52.020;113.548;2023-01-10T13:41:08;91837.44;;;-9.03
72405;BMP280;60395;52.020;113.548;2023-01-10T13:48:14;91790.69;;;-8.82
72405;BMP280;60395;52.020;113.548;2023-01-10T13:51:26;91781.56;;;-8.87
72405;BMP280;60395;52.020;113.548;2023-01-10T13:54:29;91774.91;;;-8.95
72405;BMP280;60395;52.020;113.548;2023-01-10T14:01:34;91788.03;;;-8.71
72405;BMP280;60395;52.020;113.548;2023-01-10T14:05:13;91782.00;;;-8.64
72405;BMP280;60395;52.020;113.548;2023-01-10T14:08:20;91782.41;;;-8.69
72405;BMP280;60395;52.020;113.548;2023-01-10T14:11:47;91777.19;;;-8.71
72405;BMP280;60395;52.020;113.548;2023-01-10T14:15:22;91773.47;;;-8.84
72405;BMP280;60395;52.020;113.548;2023-01-10T14:18:34;91765.13;;;-9.14
72405;BMP280;60395;52.020;113.548;2023-01-10T14:21:42;91770.47;;;-9.21
72405;BMP280;60395;52.020;113.548;2023-01-10T14:24:49;91758.25;;;-9.25
72405;BMP280;60395;52.020;113.548;2023-01-10T14:27:55;91745.44;;;-9.41
72405;BMP280;60395;52.020;113.548;2023-01-10T14:31:22;91739.41;;;-9.47
72405;BMP280;60395;52.020;113.548;2023-01-10T14:34:33;91737.63;;;-9.58
72405;BMP280;60395;52.020;113.548;2023-01-10T14:37:57;91721.03;;;-9.87
72405;BMP280;60395;52.020;113.548;2023-01-10T14:41:18;91707.19;;;-9.98
72405;BMP280;60395;52.020;113.548;2023-01-10T14:44:36;91701.19;;;-9.90
72405;BMP280;60395;52.020;113.548;2023-01-10T14:47:44;91698.38;;;-9.83
72405;BMP280;60395;52.020;113.548;2023-01-10T14:50:48;91685.09;;;-9.81
72405;BMP280;60395;52.020;113.548;2023-01-10T14:54:00;91684.25;;;-9.86
72405;BMP280;60395;52.020;113.548;2023-01-10T14:57:16;91683.63;;;-9.73
72405;BMP280;60395;52.020;113.548;2023-01-10T15:00:33;91674.19;;;-9.56
72405;BMP280;60395;52.020;113.548;2023-01-10T15:03:44;91675.16;;;-9.50
72405;BMP280;60395;52.020;113.548;2023-01-10T15:07:03;91684.28;;;-9.45
72405;BMP280;60395;52.020;113.548;2023-01-10T15:10:21;91687.09;;;-9.39
72405;BMP280;60395;52.020;113.548;2023-01-10T15:13:25;91685.00;;;-9.42
72405;BMP280;60395;52.020;113.548;2023-01-10T15:16:30;91676.84;;;-9.54
72405;BMP280;60395;52.020;113.548;2023-01-10T15:19:36;91681.75;;;-9.72
72405;BMP280;60395;52.020;113.548;2023-01-10T15:22:42;91673.06;;;-9.81
72405;BMP280;60395;52.020;113.548;2023-01-10T15:25:59;91680.03;;;-9.81
72405;BMP280;60395;52.020;113.548;2023-01-10T15:29:24;91681.34;;;-9.94
72405;BMP280;60395;52.020;113.548;2023-01-10T15:32:38;91672.22;;;-10.38
72405;BMP280;60395;52.020;113.548;2023-01-10T15:35:42;91659.63;;;-10.87
72405;BMP280;60395;52.020;113.548;2023-01-10T15:38:46;91670.19;;;-11.16
72405;BMP280;60395;52.020;113.548;2023-01-10T15:41:56;91688.47;;;-11.06
72405;BMP280;60395;52.020;113.548;2023-01-10T15:45:27;91699.19;;;-10.82
72405;BMP280;60395;52.020;113.548;2023-01-10T15:48:40;91692.78;;;-10.71
72405;BMP280;60395;52.020;113.548;2023-01-10T15:51:46;91675.44;;;-11.00
72405;BMP280;60395;52.020;113.548;2023-01-10T15:54:49;91662.28;;;-11.33
72405;BMP280;60395;52.020;113.548;2023-01-10T15:57:53;91655.84;;;-11.48
72405;BMP280;60395;52.020;113.548;2023-01-10T16:00:57;91653.94;;;-11.36
72405;BMP280;60395;52.020;113.548;2023-01-10T16:04:03;91644.63;;;-11.20
72405;BMP280;60395;52.020;113.548;2023-01-10T16:10:23;91616.44;;;-10.89
72405;BMP280;60395;52.020;113.548;2023-01-10T16:13:28;91626.69;;;-10.61
72405;BMP280;60395;52.020;113.548;2023-01-10T16:16:34;91642.91;;;-10.27
72405;BMP280;60395;52.020;113.548;2023-01-10T16:19:38;91653.28;;;-10.10
72405;BMP280;60395;52.020;113.548;2023-01-10T16:22:43;91654.06;;;-10.07
72405;BMP280;60395;52.020;113.548;2023-01-10T16:25:52;91653.84;;;-10.11
72405;BMP280;60395;52.020;113.548;2023-01-10T16:28:56;91670.00;;;-10.18
72405;BMP280;60395;52.020;113.548;2023-01-10T16:32:00;91674.66;;;-10.26
72405;BMP280;60395;52.020;113.548;2023-01-10T16:35:03;91676.28;;;-10.33
72405;BMP280;60395;52.020;113.548;2023-01-10T16:38:09;91664.19;;;-10.46
72405;BMP280;60395;52.020;113.548;2023-01-10T16:41:13;91675.53;;;-10.61
72405;BMP280;60395;52.020;113.548;2023-01-10T16:44:35;91687.03;;;-10.72
72405;BMP280;60395;52.020;113.548;2023-01-10T16:47:38;91682.22;;;-10.91
72405;BMP280;60395;52.020;113.548;2023-01-10T16:50:42;91667.41;;;-11.08
72405;BMP280;60395;52.020;113.548;2023-01-10T16:53:46;91671.59;;;-11.01
72405;BMP280;60395;52.020;113.548;2023-01-10T16:56:49;91677.09;;;-10.93
72405;BMP280;60395;52.020;113.548;2023-01-10T16:59:53;91672.91;;;-10.75
72405;BMP280;60395;52.020;113.548;2023-01-10T17:02:56;91690.78;;;-10.47
72405;BMP280;60395;52.020;113.548;2023-01-10T17:06:00;91705.25;;;-10.24
72405;BMP280;60395;52.020;113.548;2023-01-10T17:09:03;91696.72;;;-10.04
72405;BMP280;60395;52.020;113.548;2023-01-10T17:12:12;91703.66;;;-9.79
72405;BMP280;60395;52.020;113.548;2023-01-10T17:15:19;91703.94;;;-9.59
72405;BMP280;60395;52.020;113.548;2023-01-10T17:18:24;91702.34;;;-9.39
72405;BMP280;60395;52.020;113.548;2023-01-10T17:21:30;91708.72;;;-9.24
72405;BMP280;60395;52.020;113.548;2023-01-10T17:24:33;91698.50;;;-9.10
72405;BMP280;60395;52.020;113.548;2023-01-10T17:27:36;91684.31;;;-9.15
72405;BMP280;60395;52.020;113.548;2023-01-10T17:30:39;91726.44;;;-9.40
72405;BMP280;60395;52.020;113.548;2023-01-10T17:33:43;91718.34;;;-9.36
72405;BMP280;60395;52.020;113.548;2023-01-10T17:36:46;91706.84;;;-9.23
72405;BMP280;60395;52.020;113.548;2023-01-10T17:39:49;91705.13;;;-9.33
72405;BMP280;60395;52.020;113.548;2023-01-10T17:42:52;91726.91;;;-9.30
72405;BMP280;60395;52.020;113.548;2023-01-10T17:45:56;91725.66;;;-9.15
72405;BMP280;60395;52.020;113.548;2023-01-10T17:49:02;91723.09;;;-9.01
72405;BMP280;60395;52.020;113.548;2023-01-10T17:52:05;91716.53;;;-9.20
72405;BMP280;60395;52.020;113.548;2023-01-10T17:55:09;91718.34;;;-9.36
72405;BMP280;60395;52.020;113.548;2023-01-10T17:58:13;91728.78;;;-9.30
72405;BMP280;60395;52.020;113.548;2023-01-10T18:01:21;91731.41;;;-9.14
72405;BMP280;60395;52.020;113.548;2023-01-10T18:04:26;91734.28;;;-8.93
72405;BMP280;60395;52.020;113.548;2023-01-10T18:07:29;91732.03;;;-8.86
72405;BMP280;60395;52.020;113.548;2023-01-10T18:10:33;91723.94;;;-8.97
72405;BMP280;60395;52.020;113.548;2023-01-10T18:13:36;91721.91;;;-9.00
72405;BMP280;60395;52.020;113.548;2023-01-10T18:16:39;91709.19;;;-9.00
72405;BMP280;60395;52.020;113.548;2023-01-10T18:19:43;91701.56;;;-9.14
72405;BMP280;60395;52.020;113.548;2023-01-10T18:22:46;91712.88;;;-9.31
72405;BMP280;60395;52.020;113.548;2023-01-10T18:26:09;91710.06;;;-9.37
72405;BMP280;60395;52.020;113.548;2023-01-10T18:29:12;91727.28;;;-9.35
72405;BMP280;60395;52.020;113.548;2023-01-10T18:32:16;91722.75;;;-9.37
72405;BMP280;60395;52.020;113.548;2023-01-10T18:35:20;91730.38;;;-9.37
72405;BMP280;60395;52.020;113.548;2023-01-10T18:38:24;91744.97;;;-9.51
72405;BMP280;60395;52.020;113.548;2023-01-10T18:41:27;91740.91;;;-9.56